First Coast — WCR9075 — position and weather

sailwx.info

Track history (hours):
 
Tides and Currents Weather Stations Pressure Air Temp Water Temp Dewpoint Dewpoint Depression Visibility Wind Speed Wind Dir Waves Ship Positions

First Coast

Owner: DANN MARINE TOWING L C, CHESAPEAKE CITY, MD. More information available from US FCC via Universal Licensing System and Coast Guard Vessel Documentation Center.

Last reported at 2015-Sep-05 04:16 UTC. Time now 2015-Sep-05 12:23 UTC.
Position N 40°52' W 073°57'.

; draft 4 m.

Type: Tug. MMSI: 367024280.

Date/timePositionNaut miles runAvg speedWind from/ knotsBaromVisibWave heightAir tempDewpointWater temp
2015-Sep-05 04:16N 40°52' W 073°57'7 9.5
2015-Sep-05 03:33N 40°46' W 074°01'9 2.9
2015-Sep-05 00:33N 40°39' W 074°07'0 0.0
2015-Sep-04 23:28N 40°39' W 074°07'0 0.0
2015-Sep-04 17:33N 40°39' W 074°07'0 0.0
2015-Sep-04 16:33N 40°39' W 074°07'0 0.0
2015-Sep-04 15:32N 40°39' W 074°07'0 0.0
2015-Sep-04 14:33N 40°39' W 074°07'5 3.4
2015-Sep-04 13:08N 40°41' W 074°02'610.2
2015-Sep-04 12:33N 40°47' W 073°60'1 0.1
2015-Sep-04 07:06N 40°48' W 073°59'4 7.8
2015-Sep-04 06:33N 40°44' W 074°01'33 6.5
2015-Sep-04 01:32N 40°11' W 073°54'8 7.9
2015-Sep-04 00:33N 40°04' W 073°56'18 7.8
2015-Sep-03 22:18N 39°46' W 073°58'7 7.7
2015-Sep-03 21:27N 39°40' W 074°02'7 7.7
2015-Sep-03 20:33N 39°34' W 074°06'61 7.7
2015-Sep-03 12:33N 38°39' W 074°40'7 6.8
2015-Sep-03 11:29N 38°32' W 074°43'251 5.8
2015-Sep-01 16:33N 34°40' W 076°40'3 3.5
2015-Sep-01 15:33N 34°43' W 076°42'1 0.5
2015-Sep-01 14:33N 34°43' W 076°42'0 0.1
2015-Sep-01 13:33N 34°43' W 076°42'0 0.0
2015-Sep-01 12:33N 34°43' W 076°42'0 0.0
2015-Sep-01 11:33N 34°43' W 076°42'0 0.0
2015-Sep-01 10:33N 34°43' W 076°42'0 0.0
2015-Sep-01 09:33N 34°43' W 076°42'0 0.0
2015-Sep-01 08:33N 34°43' W 076°42'0 0.0
2015-Sep-01 07:33N 34°43' W 076°42'0 0.0
2015-Sep-01 06:33N 34°43' W 076°42'0 0.0
2015-Sep-01 05:33N 34°43' W 076°42'0 0.0
2015-Sep-01 04:33N 34°43' W 076°42'0 0.0
2015-Sep-01 03:33N 34°43' W 076°42'0 0.0
2015-Sep-01 02:33N 34°43' W 076°42'0 0.0
2015-Sep-01 01:33N 34°43' W 076°42'0 0.0
2015-Sep-01 00:33N 34°43' W 076°42'0 0.0
2015-Aug-31 23:33N 34°43' W 076°42'0 0.0
2015-Aug-31 22:33N 34°43' W 076°42'0 0.0
2015-Aug-31 21:33N 34°43' W 076°42'  
2015-Aug-29 04:16N 39°30' W 075°54'4 5.7
2015-Aug-29 03:33N 39°32' W 075°50'2 1.6
2015-Aug-29 02:32N 39°32' W 075°47'1010.0
2015-Aug-29 01:33N 39°34' W 075°35'6 6.1
2015-Aug-29 00:33N 39°39' W 075°33'8 8.2
2015-Aug-28 23:33N 39°47' W 075°28'3 2.2
2015-Aug-28 22:22N 39°48' W 075°25'3 3.6
2015-Aug-28 21:33N 39°46' W 075°28'5 5.5
2015-Aug-28 20:33N 39°41' W 075°31'5 5.0
2015-Aug-28 19:33N 39°37' W 075°35'4 3.7
2015-Aug-28 18:33N 39°33' W 075°36'6 6.1
2015-Aug-28 17:33N 39°33' W 075°43'5 5.5
2015-Aug-28 16:33N 39°32' W 075°50'0 0.0
2015-Aug-26 13:33N 39°32' W 075°50'9 8.9
2015-Aug-26 12:33N 39°33' W 075°39'5 4.7
2015-Aug-26 11:33N 39°36' W 075°34'7 6.9
2015-Aug-26 10:33N 39°43' W 075°31'7 7.4
2015-Aug-26 09:33N 39°48' W 075°25'1 0.2
2015-Aug-26 06:33N 39°48' W 075°25'6 6.1
2015-Aug-26 05:33N 39°43' W 075°30'6 6.0
2015-Aug-26 04:33N 39°38' W 075°34'  
Track history (hours):
 
Tides and Currents Weather Stations Pressure Air Temp Water Temp Dewpoint Dewpoint Depression Visibility Wind Speed Wind Dir Waves Ship Positions

First Coast

Owner: DANN MARINE TOWING L C, CHESAPEAKE CITY, MD. More information available from US FCC via Universal Licensing System and Coast Guard Vessel Documentation Center.

Last reported at 2015-Sep-05 04:16 UTC. Time now 2015-Sep-05 12:23 UTC.
Position N 40°52' W 073°57'.

; draft 4 m.

Type: Tug. MMSI: 367024280.

Date/timePositionNaut miles runAvg speedWind from/ knotsBaromVisibWave heightAir tempDewpointWater temp
2015-Sep-05 04:16N 40°52' W 073°57'7 9.5
2015-Sep-05 03:33N 40°46' W 074°01'9 2.9
2015-Sep-05 00:33N 40°39' W 074°07'0 0.0
2015-Sep-04 23:28N 40°39' W 074°07'0 0.0
2015-Sep-04 17:33N 40°39' W 074°07'0 0.0
2015-Sep-04 16:33N 40°39' W 074°07'0 0.0
2015-Sep-04 15:32N 40°39' W 074°07'0 0.0
2015-Sep-04 14:33N 40°39' W 074°07'5 3.4
2015-Sep-04 13:08N 40°41' W 074°02'610.2
2015-Sep-04 12:33N 40°47' W 073°60'1 0.1
2015-Sep-04 07:06N 40°48' W 073°59'4 7.8
2015-Sep-04 06:33N 40°44' W 074°01'33 6.5
2015-Sep-04 01:32N 40°11' W 073°54'8 7.9
2015-Sep-04 00:33N 40°04' W 073°56'18 7.8
2015-Sep-03 22:18N 39°46' W 073°58'7 7.7
2015-Sep-03 21:27N 39°40' W 074°02'7 7.7
2015-Sep-03 20:33N 39°34' W 074°06'61 7.7
2015-Sep-03 12:33N 38°39' W 074°40'7 6.8
2015-Sep-03 11:29N 38°32' W 074°43'251 5.8
2015-Sep-01 16:33N 34°40' W 076°40'3 3.5
2015-Sep-01 15:33N 34°43' W 076°42'1 0.5
2015-Sep-01 14:33N 34°43' W 076°42'0 0.1
2015-Sep-01 13:33N 34°43' W 076°42'0 0.0
2015-Sep-01 12:33N 34°43' W 076°42'0 0.0
2015-Sep-01 11:33N 34°43' W 076°42'0 0.0
2015-Sep-01 10:33N 34°43' W 076°42'0 0.0
2015-Sep-01 09:33N 34°43' W 076°42'0 0.0
2015-Sep-01 08:33N 34°43' W 076°42'0 0.0
2015-Sep-01 07:33N 34°43' W 076°42'0 0.0
2015-Sep-01 06:33N 34°43' W 076°42'0 0.0
2015-Sep-01 05:33N 34°43' W 076°42'0 0.0
2015-Sep-01 04:33N 34°43' W 076°42'0 0.0
2015-Sep-01 03:33N 34°43' W 076°42'0 0.0
2015-Sep-01 02:33N 34°43' W 076°42'0 0.0
2015-Sep-01 01:33N 34°43' W 076°42'0 0.0
2015-Sep-01 00:33N 34°43' W 076°42'0 0.0
2015-Aug-31 23:33N 34°43' W 076°42'0 0.0
2015-Aug-31 22:33N 34°43' W 076°42'0 0.0
2015-Aug-31 21:33N 34°43' W 076°42'  
2015-Aug-29 04:16N 39°30' W 075°54'4 5.7
2015-Aug-29 03:33N 39°32' W 075°50'2 1.6
2015-Aug-29 02:32N 39°32' W 075°47'1010.0
2015-Aug-29 01:33N 39°34' W 075°35'6 6.1
2015-Aug-29 00:33N 39°39' W 075°33'8 8.2
2015-Aug-28 23:33N 39°47' W 075°28'3 2.2
2015-Aug-28 22:22N 39°48' W 075°25'3 3.6
2015-Aug-28 21:33N 39°46' W 075°28'5 5.5
2015-Aug-28 20:33N 39°41' W 075°31'5 5.0
2015-Aug-28 19:33N 39°37' W 075°35'4 3.7
2015-Aug-28 18:33N 39°33' W 075°36'6 6.1
2015-Aug-28 17:33N 39°33' W 075°43'5 5.5
2015-Aug-28 16:33N 39°32' W 075°50'0 0.0
2015-Aug-26 13:33N 39°32' W 075°50'9 8.9
2015-Aug-26 12:33N 39°33' W 075°39'5 4.7
2015-Aug-26 11:33N 39°36' W 075°34'7 6.9
2015-Aug-26 10:33N 39°43' W 075°31'7 7.4
2015-Aug-26 09:33N 39°48' W 075°25'1 0.2
2015-Aug-26 06:33N 39°48' W 075°25'6 6.1
2015-Aug-26 05:33N 39°43' W 075°30'6 6.0
2015-Aug-26 04:33N 39°38' W 075°34'  

Dump ship's entire track history